Athol, Massachusetts
Current Conditions -  °F | °C
As of 2:52 PM on Sunday 25 Jan 2015 (Local Time) from KORE Reporting Station
Clear Clear  
Wind Chill: 22°   Ceiling: Unl
Heat Index: 30°   Visibility: 10mi
Dew Point:   Wind: 9mph
Humidity: 33%   Direction: 290°WNW
Pressure: 29.72"   Gusts: 21mph
Location:  42.59°N, 72.23°W
Report Text: KORE 251952Z AUTO 29008G18KT 10SM CLR M01/M16 A2972 RMK AO2 SLP070 T10111156
Loading
Personal Weather Stations






























Interactive Weather Map New forecast layout! Learn more

10-Day Weather Forecast

Advertisements
Track Severe Weather on mobile